sensor_id;sensor_type;location;lat;lon;timestamp;pressure;altitude;pressure_sealevel;temperature;humidity
26112;BME280;13829;48.990;8.346;2023-04-07T00:01:43;100485.44;;;9.24;100.00
26112;BME280;13829;48.990;8.346;2023-04-07T00:04:11;100494.25;;;9.29;100.00
26112;BME280;13829;48.990;8.346;2023-04-07T00:06:37;100486.38;;;9.30;100.00
26112;BME280;13829;48.990;8.346;2023-04-07T00:09:05;100483.03;;;9.44;100.00
26112;BME280;13829;48.990;8.346;2023-04-07T00:11:32;100482.13;;;9.40;100.00
26112;BME280;13829;48.990;8.346;2023-04-07T00:13:59;100480.34;;;9.39;99.36
26112;BME280;13829;48.990;8.346;2023-04-07T00:16:27;100475.94;;;9.34;99.55
26112;BME280;13829;48.990;8.346;2023-04-07T00:18:54;100473.41;;;9.44;98.46
26112;BME280;13829;48.990;8.346;2023-04-07T00:21:24;100462.84;;;9.38;98.20
26112;BME280;13829;48.990;8.346;2023-04-07T00:23:51;100461.97;;;9.38;97.73
26112;BME280;13829;48.990;8.346;2023-04-07T00:26:18;100461.97;;;9.38;98.30
26112;BME280;13829;48.990;8.346;2023-04-07T00:28:45;100451.63;;;9.53;97.04
26112;BME280;13829;48.990;8.346;2023-04-07T00:31:13;100447.16;;;9.43;95.02
26112;BME280;13829;48.990;8.346;2023-04-07T00:33:41;100457.66;;;9.43;95.87
26112;BME280;13829;48.990;8.346;2023-04-07T00:36:08;100454.09;;;9.38;97.60
26112;BME280;13829;48.990;8.346;2023-04-07T00:38:35;100451.50;;;9.41;97.25
26112;BME280;13829;48.990;8.346;2023-04-07T00:41:02;100445.38;;;9.43;97.37
26112;BME280;13829;48.990;8.346;2023-04-07T00:43:29;100449.78;;;9.46;97.30
26112;BME280;13829;48.990;8.346;2023-04-07T00:45:56;100446.38;;;9.53;96.00
26112;BME280;13829;48.990;8.346;2023-04-07T00:48:24;100446.34;;;9.50;96.35
26112;BME280;13829;48.990;8.346;2023-04-07T00:50:52;100441.91;;;9.44;97.49
26112;BME280;13829;48.990;8.346;2023-04-07T00:53:20;100437.50;;;9.42;97.75
26112;BME280;13829;48.990;8.346;2023-04-07T00:55:47;100435.75;;;9.41;97.38
26112;BME280;13829;48.990;8.346;2023-04-07T00:58:14;100431.34;;;9.38;97.15
26112;BME280;13829;48.990;8.346;2023-04-07T01:00:47;100426.94;;;9.36;97.22
26112;BME280;13829;48.990;8.346;2023-04-07T01:03:30;100418.19;;;9.34;98.10
26112;BME280;13829;48.990;8.346;2023-04-07T01:06:01;100419.91;;;9.33;98.44
26112;BME280;13829;48.990;8.346;2023-04-07T01:08:37;100418.16;;;9.30;98.33
26112;BME280;13829;48.990;8.346;2023-04-07T01:11:18;100410.28;;;9.30;98.33
26112;BME280;13829;48.990;8.346;2023-04-07T01:13:49;100409.41;;;9.32;98.67
26112;BME280;13829;48.990;8.346;2023-04-07T01:16:23;100408.53;;;9.31;97.91
26112;BME280;13829;48.990;8.346;2023-04-07T01:18:57;100403.31;;;9.34;98.12
26112;BME280;13829;48.990;8.346;2023-04-07T01:21:28;100400.69;;;9.36;97.13
26112;BME280;13829;48.990;8.346;2023-04-07T01:24:39;100402.31;;;9.24;97.91
26112;BME280;13829;48.990;8.346;2023-04-07T01:27:20;100397.94;;;9.22;98.08
26112;BME280;13829;48.990;8.346;2023-04-07T01:29:52;100396.19;;;9.22;99.68
26112;BME280;13829;48.990;8.346;2023-04-07T01:32:20;100387.44;;;9.23;100.00
26112;BME280;13829;48.990;8.346;2023-04-07T01:34:51;100387.44;;;9.22;100.00
26112;BME280;13829;48.990;8.346;2023-04-07T01:37:20;100386.50;;;9.18;100.00
26112;BME280;13829;48.990;8.346;2023-04-07T01:39:48;100391.75;;;9.17;100.00
26112;BME280;13829;48.990;8.346;2023-04-07T01:42:17;100388.28;;;9.19;100.00
26112;BME280;13829;48.990;8.346;2023-04-07T01:44:45;100384.78;;;9.17;100.00
26112;BME280;13829;48.990;8.346;2023-04-07T01:47:15;100380.41;;;9.16;100.00
26112;BME280;13829;48.990;8.346;2023-04-07T01:49:45;100384.75;;;9.16;100.00
26112;BME280;13829;48.990;8.346;2023-04-07T01:52:13;100376.81;;;9.09;100.00
26112;BME280;13829;48.990;8.346;2023-04-07T01:54:40;100388.19;;;9.10;100.00
26112;BME280;13829;48.990;8.346;2023-04-07T01:57:07;100388.19;;;9.08;100.00
26112;BME280;13829;48.990;8.346;2023-04-07T01:59:34;100377.69;;;9.10;100.00
26112;BME280;13829;48.990;8.346;2023-04-07T02:02:03;100377.66;;;9.07;100.00
26112;BME280;13829;48.990;8.346;2023-04-07T02:04:37;100375.03;;;9.05;100.00
26112;BME280;13829;48.990;8.346;2023-04-07T02:07:15;100373.28;;;9.06;100.00
26112;BME280;13829;48.990;8.346;2023-04-07T02:09:48;100372.41;;;9.07;100.00
26112;BME280;13829;48.990;8.346;2023-04-07T02:12:17;100369.78;;;9.07;100.00
26112;BME280;13829;48.990;8.346;2023-04-07T02:14:45;100366.31;;;9.08;100.00
26112;BME280;13829;48.990;8.346;2023-04-07T02:17:14;100373.31;;;9.10;100.00
26112;BME280;13829;48.990;8.346;2023-04-07T02:19:45;100365.47;;;9.12;100.00
26112;BME280;13829;48.990;8.346;2023-04-07T02:22:13;100365.50;;;9.15;100.00
26112;BME280;13829;48.990;8.346;2023-04-07T02:24:41;100360.22;;;9.12;100.00
26112;BME280;13829;48.990;8.346;2023-04-07T02:27:08;100365.44;;;9.06;100.00
26112;BME280;13829;48.990;8.346;2023-04-07T02:29:36;100365.44;;;9.06;100.00
26112;BME280;13829;48.990;8.346;2023-04-07T02:32:03;100357.56;;;9.07;100.00
26112;BME280;13829;48.990;8.346;2023-04-07T02:34:31;100354.00;;;9.02;100.00
26112;BME280;13829;48.990;8.346;2023-04-07T02:36:59;100353.97;;;8.99;100.00
26112;BME280;13829;48.990;8.346;2023-04-07T02:39:26;100352.19;;;8.95;100.00
26112;BME280;13829;48.990;8.346;2023-04-07T02:41:53;100357.44;;;8.98;100.00
26112;BME280;13829;48.990;8.346;2023-04-07T02:44:20;100354.94;;;9.09;100.00
26112;BME280;13829;48.990;8.346;2023-04-07T02:46:47;100352.25;;;9.00;100.00
26112;BME280;13829;48.990;8.346;2023-04-07T02:49:14;100344.31;;;8.96;100.00
26112;BME280;13829;48.990;8.346;2023-04-07T02:51:41;100354.81;;;8.96;100.00
26112;BME280;13829;48.990;8.346;2023-04-07T02:54:09;100336.44;;;8.93;100.00
26112;BME280;13829;48.990;8.346;2023-04-07T02:56:36;100344.19;;;8.84;100.00
26112;BME280;13829;48.990;8.346;2023-04-07T02:59:03;100338.16;;;8.93;100.00
26112;BME280;13829;48.990;8.346;2023-04-07T03:01:33;100343.38;;;8.87;100.00
26112;BME280;13829;48.990;8.346;2023-04-07T03:04:01;100346.75;;;8.78;100.00
26112;BME280;13829;48.990;8.346;2023-04-07T03:06:28;100338.81;;;8.72;100.00
26112;BME280;13829;48.990;8.346;2023-04-07T03:08:56;100338.78;;;8.69;100.00
26112;BME280;13829;48.990;8.346;2023-04-07T03:11:24;100345.84;;;8.73;100.00
26112;BME280;13829;48.990;8.346;2023-04-07T03:13:51;100345.69;;;8.63;100.00
26112;BME280;13829;48.990;8.346;2023-04-07T03:16:18;100344.84;;;8.64;100.00
26112;BME280;13829;48.990;8.346;2023-04-07T03:18:45;100341.56;;;8.84;100.00
26112;BME280;13829;48.990;8.346;2023-04-07T03:21:12;100344.84;;;8.63;100.00
26112;BME280;13829;48.990;8.346;2023-04-07T03:23:39;100342.22;;;8.64;100.00
26112;BME280;13829;48.990;8.346;2023-04-07T03:26:06;100333.44;;;8.59;100.00
26112;BME280;13829;48.990;8.346;2023-04-07T03:28:35;100325.50;;;8.56;100.00
26112;BME280;13829;48.990;8.346;2023-04-07T03:31:02;100327.28;;;8.57;100.00
26112;BME280;13829;48.990;8.346;2023-04-07T03:33:29;100329.03;;;8.58;100.00
26112;BME280;13829;48.990;8.346;2023-04-07T03:35:56;100322.97;;;8.62;100.00
26112;BME280;13829;48.990;8.346;2023-04-07T03:38:23;100316.91;;;8.67;100.00
26112;BME280;13829;48.990;8.346;2023-04-07T03:40:50;100317.69;;;8.59;100.00
26112;BME280;13829;48.990;8.346;2023-04-07T03:43:17;100315.91;;;8.55;100.00
26112;BME280;13829;48.990;8.346;2023-04-07T03:45:46;100317.63;;;8.53;100.00
26112;BME280;13829;48.990;8.346;2023-04-07T03:48:13;100320.94;;;8.41;100.00
26112;BME280;13829;48.990;8.346;2023-04-07T03:50:40;100318.34;;;8.44;100.00
26112;BME280;13829;48.990;8.346;2023-04-07T03:53:07;100322.84;;;8.50;100.00
26112;BME280;13829;48.990;8.346;2023-04-07T03:55:35;100332.97;;;8.25;100.00
26112;BME280;13829;48.990;8.346;2023-04-07T03:58:05;100326.09;;;8.33;100.00
26112;BME280;13829;48.990;8.346;2023-04-07T04:00:32;100328.88;;;8.46;100.00
26112;BME280;13829;48.990;8.346;2023-04-07T04:03:01;100324.34;;;8.36;100.00
26112;BME280;13829;48.990;8.346;2023-04-07T04:05:28;100333.22;;;8.44;100.00
26112;BME280;13829;48.990;8.346;2023-04-07T04:07:55;100330.66;;;8.48;100.00
26112;BME280;13829;48.990;8.346;2023-04-07T04:10:22;100330.59;;;8.45;100.00
26112;BME280;13829;48.990;8.346;2023-04-07T04:12:49;100326.25;;;8.46;100.00
26112;BME280;13829;48.990;8.346;2023-04-07T04:15:16;100323.72;;;8.51;100.00
26112;BME280;13829;48.990;8.346;2023-04-07T04:17:43;100320.31;;;8.58;100.00
26112;BME280;13829;48.990;8.346;2023-04-07T04:20:12;100317.59;;;8.50;100.00
26112;BME280;13829;48.990;8.346;2023-04-07T04:22:39;100320.16;;;8.47;100.00
26112;BME280;13829;48.990;8.346;2023-04-07T04:25:07;100329.81;;;8.51;100.00
26112;BME280;13829;48.990;8.346;2023-04-07T04:27:34;100329.75;;;8.45;100.00
26112;BME280;13829;48.990;8.346;2023-04-07T04:30:01;100322.72;;;8.44;100.00
26112;BME280;13829;48.990;8.346;2023-04-07T04:32:28;100329.59;;;8.36;100.00
26112;BME280;13829;48.990;8.346;2023-04-07T04:34:55;100331.50;;;8.46;100.00
26112;BME280;13829;48.990;8.346;2023-04-07T04:37:23;100330.78;;;8.58;100.00
26112;BME280;13829;48.990;8.346;2023-04-07T04:39:50;100326.47;;;8.61;100.00
26112;BME280;13829;48.990;8.346;2023-04-07T04:42:17;100333.31;;;8.50;100.00
26112;BME280;13829;48.990;8.346;2023-04-07T04:44:44;100328.81;;;8.43;100.00
26112;BME280;13829;48.990;8.346;2023-04-07T04:47:11;100333.22;;;8.45;100.00
26112;BME280;13829;48.990;8.346;2023-04-07T04:49:38;100334.94;;;8.43;100.00
26112;BME280;13829;48.990;8.346;2023-04-07T04:52:05;100330.59;;;8.42;100.00
26112;BME280;13829;48.990;8.346;2023-04-07T04:54:34;100323.78;;;8.57;100.00
26112;BME280;13829;48.990;8.346;2023-04-07T04:57:01;100324.72;;;8.60;100.00
26112;BME280;13829;48.990;8.346;2023-04-07T04:59:28;100335.13;;;8.57;100.00
26112;BME280;13829;48.990;8.346;2023-04-07T05:01:55;100331.75;;;8.64;100.00
26112;BME280;13829;48.990;8.346;2023-04-07T05:04:22;100323.97;;;8.74;100.00
26112;BME280;13829;48.990;8.346;2023-04-07T05:06:49;100327.41;;;8.68;100.00
26112;BME280;13829;48.990;8.346;2023-04-07T05:09:16;100329.19;;;8.71;100.00
26112;BME280;13829;48.990;8.346;2023-04-07T05:11:45;100323.09;;;8.73;100.00
26112;BME280;13829;48.990;8.346;2023-04-07T05:14:12;100323.97;;;8.74;100.00
26112;BME280;13829;48.990;8.346;2023-04-07T05:16:39;100324.97;;;8.84;100.00
26112;BME280;13829;48.990;8.346;2023-04-07T05:19:06;100334.66;;;8.89;100.00
26112;BME280;13829;48.990;8.346;2023-04-07T05:21:33;100332.03;;;8.91;100.00
26112;BME280;13829;48.990;8.346;2023-04-07T05:24:00;100338.16;;;8.91;100.00
26112;BME280;13829;48.990;8.346;2023-04-07T05:26:27;100335.66;;;9.01;100.00
26112;BME280;13829;48.990;8.346;2023-04-07T05:28:55;100327.78;;;9.02;100.00
26112;BME280;13829;48.990;8.346;2023-04-07T05:31:22;100330.47;;;9.10;100.00
26112;BME280;13829;48.990;8.346;2023-04-07T05:33:49;100333.97;;;9.12;100.00
26112;BME280;13829;48.990;8.346;2023-04-07T05:36:16;100332.31;;;9.20;100.00
26112;BME280;13829;48.990;8.346;2023-04-07T05:38:43;100330.66;;;9.28;99.81
26112;BME280;13829;48.990;8.346;2023-04-07T05:41:10;100335.78;;;9.14;100.00
26112;BME280;13829;48.990;8.346;2023-04-07T05:43:37;100334.00;;;9.13;100.00
26112;BME280;13829;48.990;8.346;2023-04-07T05:46:08;100329.69;;;9.19;99.88
26112;BME280;13829;48.990;8.346;2023-04-07T05:48:35;100331.41;;;9.18;100.00
26112;BME280;13829;48.990;8.346;2023-04-07T05:51:02;100336.72;;;9.21;100.00
26112;BME280;13829;48.990;8.346;2023-04-07T05:53:29;100340.25;;;9.25;100.00
26112;BME280;13829;48.990;8.346;2023-04-07T05:55:56;100343.81;;;9.32;100.00
26112;BME280;13829;48.990;8.346;2023-04-07T05:58:23;100342.09;;;9.35;100.00
26112;BME280;13829;48.990;8.346;2023-04-07T06:00:50;100340.31;;;9.36;99.72
26112;BME280;13829;48.990;8.346;2023-04-07T06:03:18;100341.31;;;9.47;100.00
26112;BME280;13829;48.990;8.346;2023-04-07T06:05:45;100345.81;;;9.62;100.00
26112;BME280;13829;48.990;8.346;2023-04-07T06:08:12;100345.91;;;9.79;98.70
26112;BME280;13829;48.990;8.346;2023-04-07T06:10:39;100347.78;;;9.89;97.29
26112;BME280;13829;48.990;8.346;2023-04-07T06:13:06;100348.72;;;10.01;95.96
26112;BME280;13829;48.990;8.346;2023-04-07T06:15:37;100347.00;;;10.12;95.20
26112;BME280;13829;48.990;8.346;2023-04-07T06:18:04;100340.97;;;10.24;94.98
26112;BME280;13829;48.990;8.346;2023-04-07T06:20:32;100341.84;;;10.27;94.72
26112;BME280;13829;48.990;8.346;2023-04-07T06:23:00;100350.63;;;10.28;94.19
26112;BME280;13829;48.990;8.346;2023-04-07T06:25:27;100347.13;;;10.31;93.45
26112;BME280;13829;48.990;8.346;2023-04-07T06:27:54;100350.56;;;10.20;93.14
26112;BME280;13829;48.990;8.346;2023-04-07T06:30:22;100340.94;;;10.21;94.13
26112;BME280;13829;48.990;8.346;2023-04-07T06:32:48;100345.34;;;10.25;93.68
26112;BME280;13829;48.990;8.346;2023-04-07T06:35:16;100341.00;;;10.33;94.61
26112;BME280;13829;48.990;8.346;2023-04-07T06:37:44;100336.75;;;10.55;94.69
26112;BME280;13829;48.990;8.346;2023-04-07T06:40:11;100335.13;;;10.96;92.73
26112;BME280;13829;48.990;8.346;2023-04-07T06:42:38;100334.28;;;11.37;90.93
26112;BME280;13829;48.990;8.346;2023-04-07T06:45:07;100326.38;;;11.70;86.07
26112;BME280;13829;48.990;8.346;2023-04-07T06:47:34;100335.13;;;11.90;84.55
26112;BME280;13829;48.990;8.346;2023-04-07T06:50:01;100332.53;;;12.06;82.91
26112;BME280;13829;48.990;8.346;2023-04-07T06:52:28;100336.91;;;12.10;82.58
26112;BME280;13829;48.990;8.346;2023-04-07T06:54:57;100341.88;;;12.87;78.14
26112;BME280;13829;48.990;8.346;2023-04-07T06:57:24;100341.06;;;13.96;72.97
26112;BME280;13829;48.990;8.346;2023-04-07T06:59:51;100331.25;;;15.96;62.48
26112;BME280;13829;48.990;8.346;2023-04-07T07:02:18;100326.44;;;17.76;55.46
26112;BME280;13829;48.990;8.346;2023-04-07T07:04:45;100321.56;;;18.87;50.50
26112;BME280;13829;48.990;8.346;2023-04-07T07:07:12;100322.56;;;19.13;47.77
26112;BME280;13829;48.990;8.346;2023-04-07T07:09:38;100321.59;;;19.44;46.12
26112;BME280;13829;48.990;8.346;2023-04-07T07:12:07;100319.16;;;20.64;44.44
26112;BME280;13829;48.990;8.346;2023-04-07T07:14:34;100326.34;;;21.52;43.59
26112;BME280;13829;48.990;8.346;2023-04-07T07:17:01;100332.78;;;21.48;41.82
26112;BME280;13829;48.990;8.346;2023-04-07T07:19:30;100332.25;;;20.72;41.80
26112;BME280;13829;48.990;8.346;2023-04-07T07:21:57;100337.13;;;18.72;46.33
26112;BME280;13829;48.990;8.346;2023-04-07T07:24:24;100335.38;;;17.74;48.98
26112;BME280;13829;48.990;8.346;2023-04-07T07:26:51;100330.94;;;16.58;51.83
26112;BME280;13829;48.990;8.346;2023-04-07T07:29:19;100324.91;;;16.06;54.32
26112;BME280;13829;48.990;8.346;2023-04-07T07:31:46;100331.91;;;16.07;56.80
26112;BME280;13829;48.990;8.346;2023-04-07T07:34:13;100331.44;;;15.87;55.37
26112;BME280;13829;48.990;8.346;2023-04-07T07:36:40;100325.06;;;15.44;57.56
26112;BME280;13829;48.990;8.346;2023-04-07T07:39:07;100334.34;;;15.13;58.00
26112;BME280;13829;48.990;8.346;2023-04-07T07:41:34;100332.06;;;14.89;58.39
26112;BME280;13829;48.990;8.346;2023-04-07T07:44:01;100333.78;;;14.19;61.73
26112;BME280;13829;48.990;8.346;2023-04-07T07:46:29;100337.09;;;14.37;62.81
26112;BME280;13829;48.990;8.346;2023-04-07T07:48:56;100352.44;;;14.04;63.16
26112;BME280;13829;48.990;8.346;2023-04-07T07:51:23;100338.13;;;14.97;64.46
26112;BME280;13829;48.990;8.346;2023-04-07T07:53:50;100337.63;;;16.76;57.56
26112;BME280;13829;48.990;8.346;2023-04-07T07:56:17;100343.53;;;17.66;52.83
26112;BME280;13829;48.990;8.346;2023-04-07T07:58:44;100342.81;;;18.60;50.60
26112;BME280;13829;48.990;8.346;2023-04-07T08:01:12;100344.22;;;19.30;48.37
26112;BME280;13829;48.990;8.346;2023-04-07T08:03:40;100344.63;;;19.46;48.98
26112;BME280;13829;48.990;8.346;2023-04-07T08:06:07;100343.25;;;19.33;47.85
26112;BME280;13829;48.990;8.346;2023-04-07T08:08:34;100349.63;;;19.55;47.81
26112;BME280;13829;48.990;8.346;2023-04-07T08:11:01;100354.09;;;20.09;45.29
26112;BME280;13829;48.990;8.346;2023-04-07T08:13:28;100351.25;;;20.39;45.08
26112;BME280;13829;48.990;8.346;2023-04-07T08:15:55;100346.34;;;20.26;45.77
26112;BME280;13829;48.990;8.346;2023-04-07T08:18:22;100351.09;;;20.67;44.28
26112;BME280;13829;48.990;8.346;2023-04-07T08:20:51;100349.94;;;20.25;44.79
26112;BME280;13829;48.990;8.346;2023-04-07T08:23:18;100353.50;;;19.74;45.56
26112;BME280;13829;48.990;8.346;2023-04-07T08:25:45;100344.66;;;19.71;48.36
26112;BME280;13829;48.990;8.346;2023-04-07T08:28:12;100347.81;;;19.58;47.61
26112;BME280;13829;48.990;8.346;2023-04-07T08:30:39;100351.91;;;19.41;50.11
26112;BME280;13829;48.990;8.346;2023-04-07T08:33:06;100350.63;;;18.96;47.42
26112;BME280;13829;48.990;8.346;2023-04-07T08:35:35;100355.75;;;19.02;48.27
26112;BME280;13829;48.990;8.346;2023-04-07T08:38:03;100353.59;;;18.85;51.10
26112;BME280;13829;48.990;8.346;2023-04-07T08:40:32;100344.81;;;18.82;49.48
26112;BME280;13829;48.990;8.346;2023-04-07T08:43:02;100366.88;;;18.24;48.93
26112;BME280;13829;48.990;8.346;2023-04-07T08:45:38;100359.16;;;17.80;48.62
26112;BME280;13829;48.990;8.346;2023-04-07T08:48:15;100370.81;;;17.38;52.81
26112;BME280;13829;48.990;8.346;2023-04-07T08:50:44;100368.19;;;17.35;51.80
26112;BME280;13829;48.990;8.346;2023-04-07T08:53:18;100374.78;;;17.19;52.06
26112;BME280;13829;48.990;8.346;2023-04-07T08:55:49;100377.25;;;16.86;54.47
26112;BME280;13829;48.990;8.346;2023-04-07T08:58:18;100367.25;;;17.00;54.53
26112;BME280;13829;48.990;8.346;2023-04-07T09:00:45;100368.91;;;17.04;56.65
26112;BME280;13829;48.990;8.346;2023-04-07T09:03:15;100371.28;;;16.76;54.26
26112;BME280;13829;48.990;8.346;2023-04-07T09:05:44;100376.91;;;16.13;56.99
26112;BME280;13829;48.990;8.346;2023-04-07T09:08:13;100380.25;;;16.25;58.69
26112;BME280;13829;48.990;8.346;2023-04-07T09:10:40;100376.16;;;16.54;59.94
26112;BME280;13829;48.990;8.346;2023-04-07T09:13:09;100376.25;;;16.93;58.26
26112;BME280;13829;48.990;8.346;2023-04-07T09:15:36;100377.63;;;17.11;58.36
26112;BME280;13829;48.990;8.346;2023-04-07T09:18:05;100374.75;;;17.22;57.17
26112;BME280;13829;48.990;8.346;2023-04-07T09:20:56;100372.38;;;17.08;57.83
26112;BME280;13829;48.990;8.346;2023-04-07T09:23:31;100378.97;;;16.88;57.60
26112;BME280;13829;48.990;8.346;2023-04-07T09:26:01;100380.16;;;16.75;60.20
26112;BME280;13829;48.990;8.346;2023-04-07T09:28:46;100382.91;;;16.70;56.33
26112;BME280;13829;48.990;8.346;2023-04-07T09:31:13;100386.31;;;16.75;61.80
26112;BME280;13829;48.990;8.346;2023-04-07T09:33:41;100380.66;;;16.94;56.30
26112;BME280;13829;48.990;8.346;2023-04-07T09:36:08;100382.47;;;16.92;55.46
26112;BME280;13829;48.990;8.346;2023-04-07T09:38:38;100382.91;;;16.70;55.85
26112;BME280;13829;48.990;8.346;2023-04-07T09:41:07;100384.44;;;16.80;54.88
26112;BME280;13829;48.990;8.346;2023-04-07T09:43:37;100379.22;;;16.77;53.87
26112;BME280;13829;48.990;8.346;2023-04-07T09:46:13;100387.81;;;16.45;56.21
26112;BME280;13829;48.990;8.346;2023-04-07T09:48:42;100389.50;;;16.51;56.84
26112;BME280;13829;48.990;8.346;2023-04-07T09:51:14;100386.16;;;16.85;59.68
26112;BME280;13829;48.990;8.346;2023-04-07T09:53:46;100381.72;;;17.26;57.30
26112;BME280;13829;48.990;8.346;2023-04-07T09:56:15;100373.06;;;17.18;58.02
26112;BME280;13829;48.990;8.346;2023-04-07T09:58:44;100381.66;;;17.29;56.25
26112;BME280;13829;48.990;8.346;2023-04-07T10:01:14;100387.81;;;17.31;56.65
26112;BME280;13829;48.990;8.346;2023-04-07T10:03:44;100379.78;;;17.34;56.96
26112;BME280;13829;48.990;8.346;2023-04-07T10:06:12;100386.75;;;17.38;56.22
26112;BME280;13829;48.990;8.346;2023-04-07T10:08:42;100378.03;;;17.33;55.86
26112;BME280;13829;48.990;8.346;2023-04-07T10:11:10;100376.97;;;17.39;57.61
26112;BME280;13829;48.990;8.346;2023-04-07T10:13:39;100382.72;;;17.22;59.02
26112;BME280;13829;48.990;8.346;2023-04-07T10:16:07;100390.22;;;17.40;56.38
26112;BME280;13829;48.990;8.346;2023-04-07T10:18:35;100375.22;;;17.38;55.94
26112;BME280;13829;48.990;8.346;2023-04-07T10:21:06;100378.03;;;17.33;55.84
26112;BME280;13829;48.990;8.346;2023-04-07T10:23:50;100379.81;;;17.31;55.47
26112;BME280;13829;48.990;8.346;2023-04-07T10:26:22;100371.78;;;17.34;54.62
26112;BME280;13829;48.990;8.346;2023-04-07T10:28:58;100378.22;;;17.24;56.02
26112;BME280;13829;48.990;8.346;2023-04-07T10:31:28;100375.13;;;17.03;52.73
26112;BME280;13829;48.990;8.346;2023-04-07T10:33:55;100386.91;;;16.91;53.85
26112;BME280;13829;48.990;8.346;2023-04-07T10:36:22;100389.88;;;16.74;52.05
26112;BME280;13829;48.990;8.346;2023-04-07T10:39:22;100383.41;;;16.45;54.26
26112;BME280;13829;48.990;8.346;2023-04-07T10:41:49;100381.72;;;16.40;57.64
26112;BME280;13829;48.990;8.346;2023-04-07T10:44:47;100378.38;;;16.30;55.33
26112;BME280;13829;48.990;8.346;2023-04-07T10:47:15;100383.34;;;16.49;55.93
26112;BME280;13829;48.990;8.346;2023-04-07T10:50:23;100383.28;;;16.50;56.48
26112;BME280;13829;48.990;8.346;2023-04-07T10:53:05;100376.75;;;16.23;53.83
26112;BME280;13829;48.990;8.346;2023-04-07T10:55:37;100384.72;;;16.23;52.59
26112;BME280;13829;48.990;8.346;2023-04-07T10:58:20;100380.94;;;16.35;52.74
26112;BME280;13829;48.990;8.346;2023-04-07T11:01:24;100383.44;;;15.95;52.79
26112;BME280;13829;48.990;8.346;2023-04-07T11:03:58;100382.44;;;16.03;52.48
26112;BME280;13829;48.990;8.346;2023-04-07T11:06:25;100385.22;;;15.93;58.15
26112;BME280;13829;48.990;8.346;2023-04-07T11:08:53;100382.69;;;15.89;54.99
26112;BME280;13829;48.990;8.346;2023-04-07T11:11:40;100374.72;;;15.31;52.93
26112;BME280;13829;48.990;8.346;2023-04-07T11:14:07;100381.72;;;15.35;54.60
26112;BME280;13829;48.990;8.346;2023-04-07T11:16:39;100380.03;;;15.31;53.33
26112;BME280;13829;48.990;8.346;2023-04-07T11:19:07;100381.59;;;15.44;57.07
26112;BME280;13829;48.990;8.346;2023-04-07T11:21:34;100380.41;;;15.62;52.96
26112;BME280;13829;48.990;8.346;2023-04-07T11:24:02;100377.72;;;15.64;52.48
26112;BME280;13829;48.990;8.346;2023-04-07T11:26:37;100377.94;;;15.52;53.43
26112;BME280;13829;48.990;8.346;2023-04-07T11:29:05;100385.31;;;15.31;55.01
26112;BME280;13829;48.990;8.346;2023-04-07T11:31:33;100384.50;;;15.29;57.22
26112;BME280;13829;48.990;8.346;2023-04-07T11:34:02;100380.06;;;15.28;56.83
26112;BME280;13829;48.990;8.346;2023-04-07T11:36:31;100387.16;;;15.26;56.91
26112;BME280;13829;48.990;8.346;2023-04-07T11:39:00;100381.72;;;15.37;57.91
26112;BME280;13829;48.990;8.346;2023-04-07T11:41:29;100387.72;;;15.46;55.43
26112;BME280;13829;48.990;8.346;2023-04-07T11:44:06;100377.00;;;15.54;55.14
26112;BME280;13829;48.990;8.346;2023-04-07T11:46:35;100386.75;;;15.54;53.95
26112;BME280;13829;48.990;8.346;2023-04-07T11:49:11;100386.50;;;15.69;53.13
26112;BME280;13829;48.990;8.346;2023-04-07T11:51:38;100386.31;;;15.81;56.11
26112;BME280;13829;48.990;8.346;2023-04-07T11:54:05;100391.34;;;15.97;52.42
26112;BME280;13829;48.990;8.346;2023-04-07T11:56:43;100393.84;;;16.08;54.59
26112;BME280;13829;48.990;8.346;2023-04-07T11:59:20;100385.25;;;16.42;53.14
26112;BME280;13829;48.990;8.346;2023-04-07T12:01:50;100392.38;;;16.38;53.02
26112;BME280;13829;48.990;8.346;2023-04-07T12:04:18;100382.31;;;16.56;52.64
26112;BME280;13829;48.990;8.346;2023-04-07T12:06:47;100377.34;;;16.83;51.70
26112;BME280;13829;48.990;8.346;2023-04-07T12:09:29;100378.06;;;16.92;48.00
26112;BME280;13829;48.990;8.346;2023-04-07T12:11:57;100371.56;;;16.60;50.20
26112;BME280;13829;48.990;8.346;2023-04-07T12:14:26;100372.41;;;16.64;52.44
26112;BME280;13829;48.990;8.346;2023-04-07T12:16:54;100381.09;;;16.72;49.28
26112;BME280;13829;48.990;8.346;2023-04-07T12:19:28;100374.53;;;16.89;49.71
26112;BME280;13829;48.990;8.346;2023-04-07T12:21:55;100374.31;;;17.00;46.05
26112;BME280;13829;48.990;8.346;2023-04-07T12:24:23;100374.16;;;17.07;48.87
26112;BME280;13829;48.990;8.346;2023-04-07T12:26:50;100376.63;;;17.17;49.63
26112;BME280;13829;48.990;8.346;2023-04-07T12:29:17;100378.38;;;17.16;49.04
26112;BME280;13829;48.990;8.346;2023-04-07T12:31:46;100373.53;;;16.96;48.84
26112;BME280;13829;48.990;8.346;2023-04-07T12:34:13;100378.69;;;17.02;48.06
26112;BME280;13829;48.990;8.346;2023-04-07T12:36:41;100382.84;;;16.72;50.06
26112;BME280;13829;48.990;8.346;2023-04-07T12:39:09;100391.88;;;16.65;52.31
26112;BME280;13829;48.990;8.346;2023-04-07T12:41:36;100396.53;;;16.53;52.14
26112;BME280;13829;48.990;8.346;2023-04-07T12:44:04;100399.28;;;15.98;52.83
26112;BME280;13829;48.990;8.346;2023-04-07T12:46:31;100398.34;;;15.48;55.66
26112;BME280;13829;48.990;8.346;2023-04-07T12:48:59;100410.38;;;15.08;59.06
26112;BME280;13829;48.990;8.346;2023-04-07T12:51:27;100406.25;;;14.86;64.63
26112;BME280;13829;48.990;8.346;2023-04-07T12:53:54;100410.09;;;14.57;67.83
26112;BME280;13829;48.990;8.346;2023-04-07T12:56:21;100411.28;;;14.28;71.91
26112;BME280;13829;48.990;8.346;2023-04-07T12:58:48;100417.03;;;13.78;74.02
26112;BME280;13829;48.990;8.346;2023-04-07T13:01:15;100413.56;;;13.70;77.06